Time;durP1;ratioP1;P1;durP2;ratioP2;P2;SDS_P1;SDS_P2;PMS_P1;PMS_P2;Temp;Humidity;BMP_temperature;BMP_pressure;BME280_temperature;BME280_humidity;BME280_pressure;Samples;Min_cycle;Max_cycle;Signal;HPM_P1;HPM_P2
2024/01/17 00:01:55;;;;;;;9.73;6.67;;;;;;;-3.89;100.00;100016.88;5024431;28;20021;-63
2024/01/17 00:04:20;;;;;;;9.10;7.30;;;;;;;-3.86;100.00;100009.50;5025738;28;20468;-63
2024/01/17 00:06:45;;;;;;;10.83;7.17;;;;;;;-3.81;100.00;100011.50;5025756;28;20064;-63
2024/01/17 00:09:11;;;;;;;10.63;6.80;;;;;;;-3.82;100.00;100004.66;5021610;28;20043;-63
2024/01/17 00:11:37;;;;;;;10.13;6.80;;;;;;;-3.80;100.00;100000.59;5021720;28;20037;-63
2024/01/17 00:14:02;;;;;;;11.87;7.00;;;;;;;-3.83;100.00;99992.78;5019843;28;20032;-63
2024/01/17 00:16:27;;;;;;;12.50;7.10;;;;;;;-3.82;100.00;99995.41;5027251;28;20029;-63
2024/01/17 00:18:54;;;;;;;10.20;6.30;;;;;;;-3.79;100.00;99984.63;5024184;28;20398;-63
2024/01/17 00:21:20;;;;;;;10.33;6.60;;;;;;;-3.80;100.00;99982.88;5027535;28;20025;-63
2024/01/17 00:23:45;;;;;;;10.63;6.80;;;;;;;-3.81;100.00;99983.66;5027975;28;20032;-63
2024/01/17 00:26:11;;;;;;;9.50;7.03;;;;;;;-3.83;100.00;99972.53;5027534;28;20113;-63
2024/01/17 00:28:36;;;;;;;11.73;7.57;;;;;;;-3.86;100.00;99966.44;5025046;28;20045;-63
2024/01/17 00:31:02;;;;;;;8.80;7.03;;;;;;;-3.84;100.00;99965.66;5025797;28;20025;-63
2024/01/17 00:33:27;;;;;;;11.30;7.97;;;;;;;-3.84;100.00;99960.59;5027877;28;20569;-64
2024/01/17 00:35:53;;;;;;;11.63;7.43;;;;;;;-3.79;100.00;99954.25;5027821;28;20111;-63
2024/01/17 00:38:18;;;;;;;10.10;6.97;;;;;;;-3.84;100.00;99945.41;5027546;28;20067;-63
2024/01/17 00:40:43;;;;;;;10.53;6.80;;;;;;;-3.86;100.00;99942.78;5027060;28;20086;-63
2024/01/17 00:43:09;;;;;;;10.93;6.73;;;;;;;-3.89;100.00;99925.72;5027544;28;20056;-63
2024/01/17 00:45:34;;;;;;;12.40;8.30;;;;;;;-3.96;100.00;99922.59;5025823;28;20083;-63
2024/01/17 00:47:59;;;;;;;9.80;6.23;;;;;;;-3.96;100.00;99926.00;5027442;28;20032;-63
2024/01/17 00:50:24;;;;;;;8.83;6.87;;;;;;;-3.91;100.00;99922.19;5026904;28;20060;-63
2024/01/17 00:52:50;;;;;;;9.00;6.10;;;;;;;-3.91;100.00;99913.69;5026629;28;20046;-63
2024/01/17 00:55:15;;;;;;;11.17;6.73;;;;;;;-3.91;100.00;99911.16;5026907;28;20026;-63
2024/01/17 00:57:41;;;;;;;9.77;6.50;;;;;;;-3.95;100.00;99904.09;5026759;28;20113;-63
2024/01/17 01:00:08;;;;;;;11.20;7.13;;;;;;;-3.95;100.00;99896.50;5026559;28;20393;-63
2024/01/17 01:02:33;;;;;;;9.17;6.57;;;;;;;-3.96;100.00;99892.22;5025605;28;20551;-63
2024/01/17 01:04:58;;;;;;;8.17;6.27;;;;;;;-3.89;100.00;99887.72;5024887;28;20061;-63
2024/01/17 01:07:24;;;;;;;11.33;6.63;;;;;;;-3.90;100.00;99885.06;5026566;28;20021;-63
2024/01/17 01:09:49;;;;;;;10.17;6.30;;;;;;;-3.94;100.00;99888.16;5027036;28;20104;-63
2024/01/17 01:12:14;;;;;;;8.83;6.80;;;;;;;-4.02;100.00;99887.56;5026483;28;20029;-63
2024/01/17 01:14:39;;;;;;;9.03;7.00;;;;;;;-4.05;100.00;99883.16;5025881;28;20033;-63
2024/01/17 01:17:05;;;;;;;10.53;6.27;;;;;;;-4.08;100.00;99884.59;5025293;28;20033;-63
2024/01/17 01:19:30;;;;;;;10.00;6.87;;;;;;;-4.11;100.00;99876.00;5026539;28;20529;-63
2024/01/17 01:21:55;;;;;;;9.27;6.00;;;;;;;-4.03;100.00;99875.69;5026239;28;20040;-63
2024/01/17 01:24:22;;;;;;;15.33;7.73;;;;;;;-4.00;100.00;99873.38;5020809;28;20038;-63
2024/01/17 01:26:47;;;;;;;9.57;7.30;;;;;;;-4.05;100.00;99874.69;5025051;28;20053;-63
2024/01/17 01:29:12;;;;;;;10.53;6.43;;;;;;;-4.11;100.00;99865.88;5026462;28;20065;-63
2024/01/17 01:31:37;;;;;;;11.03;6.83;;;;;;;-4.12;100.00;99859.00;5024275;28;20030;-63
2024/01/17 01:34:03;;;;;;;15.93;7.40;;;;;;;-4.13;100.00;99862.31;5026751;28;20025;-63
2024/01/17 01:36:28;;;;;;;8.23;6.73;;;;;;;-4.19;100.00;99869.44;5026136;28;20079;-64
2024/01/17 01:38:53;;;;;;;10.00;6.53;;;;;;;-4.23;100.00;99870.00;5026255;28;20025;-63
2024/01/17 01:41:18;;;;;;;11.20;7.77;;;;;;;-4.24;100.00;99868.22;5028659;28;20025;-63
2024/01/17 01:43:44;;;;;;;11.00;7.17;;;;;;;-4.26;100.00;99875.69;5024237;28;20399;-63
2024/01/17 01:46:15;;;;;;;12.87;7.40;;;;;;;-4.28;100.00;99858.66;5027164;28;20385;-63
2024/01/17 01:48:42;;;;;;;;;;;;;;;-4.31;100.00;99855.88;5030276;28;20032;-63
2024/01/17 01:51:08;;;;;;;11.77;7.27;;;;;;;-4.35;100.00;99864.88;5030099;28;19921;-63
2024/01/17 01:53:34;;;;;;;10.53;7.03;;;;;;;-4.36;100.00;99864.00;5029959;28;20022;-63
2024/01/17 01:56:00;;;;;;;12.77;7.87;;;;;;;-4.35;100.00;99859.81;5028652;28;20021;-63
2024/01/17 01:58:26;;;;;;;11.27;6.90;;;;;;;-4.36;100.00;99855.53;5029735;28;20033;-63
2024/01/17 02:00:54;;;;;;;9.90;7.30;;;;;;;-4.38;100.00;99845.28;5028187;28;20045;-63
2024/01/17 02:03:20;;;;;;;10.33;7.03;;;;;;;-4.41;100.00;99840.00;5029674;28;20126;-63
2024/01/17 02:05:47;;;;;;;12.67;7.67;;;;;;;-4.39;100.00;99846.03;5029137;28;20104;-63
2024/01/17 02:08:13;;;;;;;9.27;6.97;;;;;;;-4.38;100.00;99841.88;5029769;28;20061;-63
2024/01/17 02:10:39;;;;;;;10.07;7.80;;;;;;;-4.41;100.00;99840.00;5029640;28;20457;-63
2024/01/17 02:13:05;;;;;;;11.83;7.93;;;;;;;-4.44;100.00;99833.84;5029225;28;20624;-63
2024/01/17 02:15:31;;;;;;;9.13;7.67;;;;;;;-4.46;100.00;99837.09;5028984;28;20079;-63
2024/01/17 02:17:56;;;;;;;12.23;7.97;;;;;;;-4.47;100.00;99827.75;5023582;28;20036;-63
2024/01/17 02:20:21;;;;;;;11.57;7.30;;;;;;;-4.46;100.00;99831.16;5026572;28;20048;-63
2024/01/17 02:22:47;;;;;;;12.83;7.60;;;;;;;-4.48;100.00;99812.47;5022083;28;20264;-63
2024/01/17 02:25:12;;;;;;;11.30;7.17;;;;;;;-4.46;100.00;99813.44;5028943;28;20600;-63
2024/01/17 02:27:38;;;;;;;10.03;7.33;;;;;;;-4.43;100.00;99815.34;5029380;28;20029;-63
2024/01/17 02:30:06;;;;;;;9.43;7.40;;;;;;;-4.46;100.00;99810.91;5029148;28;20069;-63
2024/01/17 02:32:33;;;;;;;10.90;6.83;;;;;;;-4.47;100.00;99796.53;5026516;28;20305;-63
2024/01/17 02:34:58;;;;;;;11.60;7.70;;;;;;;-4.49;100.00;99787.94;5029058;28;20021;-64
2024/01/17 02:37:23;;;;;;;11.77;7.57;;;;;;;-4.44;100.00;99784.09;5029120;28;20504;-63
2024/01/17 02:39:48;;;;;;;9.90;6.97;;;;;;;-4.48;100.00;99772.00;5028759;28;20028;-63
2024/01/17 02:42:14;;;;;;;12.43;6.80;;;;;;;-4.45;100.00;99769.69;5029561;28;20033;-63
2024/01/17 02:44:39;;;;;;;10.07;7.13;;;;;;;-4.44;100.00;99765.53;5028801;28;20030;-63
2024/01/17 02:47:04;;;;;;;9.40;6.87;;;;;;;-4.47;100.00;99759.47;5027786;28;20060;-63
2024/01/17 02:49:30;;;;;;;11.10;8.53;;;;;;;-4.44;100.00;99753.75;5028568;28;20385;-63
2024/01/17 02:51:55;;;;;;;13.23;7.13;;;;;;;-4.44;100.00;99752.88;5027996;28;20049;-63
2024/01/17 02:54:20;;;;;;;8.07;7.07;;;;;;;-4.40;100.00;99735.50;5028587;28;20041;-64
2024/01/17 02:56:46;;;;;;;12.63;7.53;;;;;;;-4.35;100.00;99741.78;5018972;28;20504;-63
2024/01/17 02:59:11;;;;;;;8.93;6.77;;;;;;;-4.39;100.00;99737.25;5027129;28;20020;-63
2024/01/17 03:01:36;;;;;;;13.33;6.83;;;;;;;-4.41;100.00;99731.22;5025467;28;20041;-63
2024/01/17 03:04:02;;;;;;;8.20;6.33;;;;;;;-4.47;100.00;99720.63;5026370;28;20079;-63
2024/01/17 03:06:27;;;;;;;11.27;6.33;;;;;;;-4.52;100.00;99720.31;5028874;28;20508;-63
2024/01/17 03:08:53;;;;;;;9.60;7.03;;;;;;;-4.54;100.00;99720.94;5028569;28;20078;-63
2024/01/17 03:11:18;;;;;;;10.77;6.90;;;;;;;-4.50;100.00;99717.88;5028018;28;20030;-63
2024/01/17 03:13:43;;;;;;;12.03;6.80;;;;;;;-4.50;100.00;99720.41;5028657;28;20499;-63
2024/01/17 03:16:09;;;;;;;9.93;7.00;;;;;;;-4.54;100.00;99716.78;5027114;28;20033;-63
2024/01/17 03:18:34;;;;;;;11.10;6.87;;;;;;;-4.56;100.00;99715.78;5028448;28;20025;-63
2024/01/17 03:21:04;;;;;;;10.43;7.33;;;;;;;-4.59;100.00;99718.09;5027328;28;20124;-63
2024/01/17 03:23:29;;;;;;;10.13;7.40;;;;;;;-4.62;100.00;99718.72;5026173;28;20560;-63
2024/01/17 03:25:55;;;;;;;10.70;7.17;;;;;;;-4.61;100.00;99705.31;5028205;28;20060;-63
2024/01/17 03:28:20;;;;;;;11.07;6.97;;;;;;;-4.61;100.00;99707.84;5026464;28;20436;-63
2024/01/17 03:30:45;;;;;;;9.53;7.07;;;;;;;-4.62;100.00;99698.47;5028322;28;20028;-63
2024/01/17 03:33:10;;;;;;;10.70;6.80;;;;;;;-4.65;100.00;99695.72;5027799;28;20033;-63
2024/01/17 03:35:36;;;;;;;10.83;6.87;;;;;;;-4.66;100.00;99686.41;5026933;28;20037;-63
2024/01/17 03:38:01;;;;;;;9.13;6.90;;;;;;;-4.67;100.00;99674.50;5028052;28;20025;-63
2024/01/17 03:40:26;;;;;;;10.20;6.90;;;;;;;-4.68;100.00;99672.75;5028442;28;20076;-63
2024/01/17 03:42:52;;;;;;;9.13;6.03;;;;;;;-4.70;100.00;99659.13;5027574;28;20021;-63
2024/01/17 03:45:17;;;;;;;11.03;7.30;;;;;;;-4.72;100.00;99651.41;5027779;28;20056;-63
2024/01/17 03:47:42;;;;;;;13.30;6.87;;;;;;;-4.71;100.00;99647.22;5026296;28;20095;-63
2024/01/17 03:50:08;;;;;;;9.73;6.47;;;;;;;-4.70;100.00;99633.81;5027848;28;20037;-63
2024/01/17 03:52:33;;;;;;;18.03;7.70;;;;;;;-4.72;100.00;99627.78;5027497;28;20052;-63
2024/01/17 03:54:58;;;;;;;12.60;7.07;;;;;;;-4.73;100.00;99616.75;5024126;28;20065;-63
2024/01/17 03:57:23;;;;;;;10.87;7.40;;;;;;;-4.75;100.00;99615.78;5024227;28;20017;-63
2024/01/17 03:59:49;;;;;;;8.07;6.40;;;;;;;-4.77;100.00;99608.84;5027555;28;20029;-63
2024/01/17 04:02:14;;;;;;;10.40;7.30;;;;;;;-4.78;100.00;99604.53;5025852;28;20033;-63
2024/01/17 04:04:40;;;;;;;12.50;7.70;;;;;;;-4.80;100.00;99601.91;5027645;28;20129;-63
2024/01/17 04:07:06;;;;;;;14.93;7.07;;;;;;;-4.80;100.00;99606.97;5026742;28;20143;-63
2024/01/17 04:09:31;;;;;;;10.17;8.07;;;;;;;-4.82;100.00;99599.28;5027225;28;20117;-63
2024/01/17 04:11:56;;;;;;;9.80;7.53;;;;;;;-4.85;100.00;99588.94;5026470;28;20083;-63
2024/01/17 04:14:22;;;;;;;11.93;7.50;;;;;;;-4.87;100.00;99580.38;5023848;28;20505;-63
2024/01/17 04:16:47;;;;;;;10.23;7.43;;;;;;;-4.88;100.00;99568.50;5025082;28;20032;-63
2024/01/17 04:19:13;;;;;;;13.80;7.33;;;;;;;-4.89;100.00;99555.75;5023920;28;20454;-63
2024/01/17 04:21:38;;;;;;;9.73;7.07;;;;;;;-4.90;100.00;99552.34;5022268;28;20036;-63
2024/01/17 04:24:04;;;;;;;12.93;8.40;;;;;;;-4.91;100.00;99548.03;5027289;28;20026;-63
2024/01/17 04:26:29;;;;;;;10.47;8.30;;;;;;;-4.91;100.00;99547.19;5027691;28;20378;-63
2024/01/17 04:28:55;;;;;;;13.73;8.40;;;;;;;-4.95;100.00;99541.00;5026996;28;20025;-63
2024/01/17 04:31:28;;;;;;;12.07;8.17;;;;;;;-4.98;100.00;99526.50;5027111;28;20440;-63
2024/01/17 04:33:54;;;;;;;12.80;8.40;;;;;;;-4.97;100.00;99529.91;5027020;28;20057;-63
2024/01/17 04:36:21;;;;;;;13.70;8.03;;;;;;;-4.98;100.00;99518.91;5027171;28;20029;-63
2024/01/17 04:38:47;;;;;;;10.63;7.37;;;;;;;-4.97;100.00;99519.78;5027386;28;20032;-63
2024/01/17 04:41:15;;;;;;;13.47;8.10;;;;;;;-4.99;100.00;99506.16;5028130;28;20025;-63
2024/01/17 04:43:41;;;;;;;12.87;8.30;;;;;;;-5.00;100.00;99504.41;5027681;28;20029;-63
2024/01/17 04:46:08;;;;;;;11.37;7.80;;;;;;;-5.01;100.00;99490.00;5027218;28;20029;-63
2024/01/17 04:48:34;;;;;;;11.10;7.97;;;;;;;-5.01;100.00;99490.00;5026462;28;20029;-62
2024/01/17 04:50:59;;;;;;;12.80;7.47;;;;;;;-5.00;100.00;99492.63;5027085;28;20052;-63
2024/01/17 04:53:25;;;;;;;13.67;8.57;;;;;;;-5.00;100.00;99491.78;5025984;28;20037;-63
2024/01/17 04:55:50;;;;;;;11.00;7.97;;;;;;;-4.99;100.00;99484.31;5027058;28;20029;-63
2024/01/17 04:58:16;;;;;;;11.00;7.80;;;;;;;-4.99;100.00;99478.38;5027096;28;20029;-63
2024/01/17 05:00:45;;;;;;;13.13;8.43;;;;;;;-5.04;100.00;99477.16;5026664;28;20036;-63
2024/01/17 05:03:10;;;;;;;12.17;8.57;;;;;;;-5.08;100.00;99471.88;5025719;28;20039;-63
2024/01/17 05:05:36;;;;;;;12.43;8.27;;;;;;;-5.10;100.00;99463.31;5027355;28;20533;-63
2024/01/17 05:08:02;;;;;;;10.73;8.47;;;;;;;-5.10;100.00;99465.84;5027328;28;20099;-63
2024/01/17 05:10:27;;;;;;;11.23;8.47;;;;;;;-5.10;100.00;99465.84;5026831;28;20025;-63
2024/01/17 05:12:52;;;;;;;12.13;7.87;;;;;;;-5.10;100.00;99452.31;5027023;28;20025;-63
2024/01/17 05:15:18;;;;;;;11.83;7.60;;;;;;;-5.13;100.00;99445.41;5029569;28;20053;-63
2024/01/17 05:17:43;;;;;;;13.53;8.37;;;;;;;-5.15;100.00;99444.41;5023354;28;20392;-63
2024/01/17 05:20:09;;;;;;;13.17;8.93;;;;;;;-5.15;100.00;99441.88;5033593;28;20464;-63
2024/01/17 05:22:39;;;;;;;12.17;8.80;;;;;;;-5.16;100.00;99439.25;5033740;28;20028;-63
2024/01/17 05:25:06;;;;;;;17.60;8.90;;;;;;;-5.17;100.00;99438.34;5033765;28;20025;-63
2024/01/17 05:27:32;;;;;;;11.77;9.03;;;;;;;-5.18;100.00;99434.94;5033884;28;20463;-62
2024/01/17 05:29:57;;;;;;;11.43;8.43;;;;;;;-5.16;100.00;99424.94;5032737;28;20100;-63
2024/01/17 05:32:22;;;;;;;15.00;8.53;;;;;;;-5.16;100.00;99430.00;5031646;28;20478;-63
2024/01/17 05:34:50;;;;;;;12.53;9.00;;;;;;;-5.17;100.00;99420.69;5033371;28;20029;-63
2024/01/17 05:37:16;;;;;;;18.17;8.80;;;;;;;-5.17;100.00;99418.16;5033741;28;20029;-64
2024/01/17 05:39:41;;;;;;;15.13;8.60;;;;;;;-5.16;100.00;99413.97;5031916;28;20053;-63
2024/01/17 05:42:06;;;;;;;15.83;10.17;;;;;;;-5.17;100.00;99413.09;5033590;28;20021;-63
2024/01/17 05:44:31;;;;;;;19.20;9.50;;;;;;;-5.18;100.00;99408.81;5030657;28;20047;-63
2024/01/17 05:46:57;;;;;;;11.33;9.07;;;;;;;-5.19;100.00;99400.34;5033712;28;20021;-63
2024/01/17 05:49:22;;;;;;;13.60;9.10;;;;;;;-5.20;100.00;99393.53;5033376;28;20079;-63
2024/01/17 05:51:48;;;;;;;15.77;9.90;;;;;;;-5.18;100.00;99398.72;5034573;28;20481;-63
2024/01/17 05:54:13;;;;;;;13.90;9.97;;;;;;;-5.19;100.00;99391.88;5032344;28;20079;-63
2024/01/17 05:56:39;;;;;;;15.90;9.73;;;;;;;-5.20;100.00;99383.41;5032392;28;20060;-63
2024/01/17 05:59:04;;;;;;;13.17;8.80;;;;;;;-5.16;100.00;99378.59;5032468;28;20053;-63
2024/01/17 06:01:29;;;;;;;12.07;8.53;;;;;;;-5.20;100.00;99383.41;5032599;28;20386;-63
2024/01/17 06:03:54;;;;;;;13.17;8.83;;;;;;;-5.22;100.00;99379.03;5023690;28;20029;-63
2024/01/17 06:06:20;;;;;;;11.77;9.13;;;;;;;-5.22;100.00;99379.94;5032866;28;20040;-63
2024/01/17 06:08:45;;;;;;;11.87;8.30;;;;;;;-5.24;100.00;99378.06;5033279;28;20476;-63
2024/01/17 06:11:10;;;;;;;14.43;8.90;;;;;;;-5.26;100.00;99372.88;5033393;28;20033;-63
2024/01/17 06:13:35;;;;;;;14.33;10.00;;;;;;;-5.23;100.00;99364.63;5032877;28;20041;-63
2024/01/17 06:16:01;;;;;;;14.73;8.90;;;;;;;-5.20;100.00;99363.22;5033222;28;20037;-63
2024/01/17 06:18:26;;;;;;;14.00;8.70;;;;;;;-5.18;100.00;99368.41;5031657;28;20029;-63
2024/01/17 06:20:53;;;;;;;15.50;8.73;;;;;;;-5.18;100.00;99364.19;5032279;28;20713;-63
2024/01/17 06:23:18;;;;;;;10.07;8.50;;;;;;;-5.17;100.00;99357.50;5032981;28;20541;-63
2024/01/17 06:25:44;;;;;;;10.30;8.17;;;;;;;-5.15;100.00;99350.03;5031992;28;20115;-63
2024/01/17 06:28:09;;;;;;;11.80;8.40;;;;;;;-5.13;100.00;99343.44;5029818;28;20371;-62
2024/01/17 06:30:35;;;;;;;11.50;8.13;;;;;;;-5.12;100.00;99341.03;5029352;28;20033;-63
2024/01/17 06:33:00;;;;;;;11.47;8.37;;;;;;;-5.14;100.00;99334.97;5028218;28;20405;-63
2024/01/17 06:35:25;;;;;;;12.23;8.47;;;;;;;-5.10;100.00;99341.13;5030210;28;20025;-63
2024/01/17 06:37:51;;;;;;;14.10;8.67;;;;;;;-5.13;100.00;99329.19;5030637;28;20028;-62
2024/01/17 06:40:16;;;;;;;12.23;8.50;;;;;;;-5.10;100.00;99333.56;5030002;28;20026;-63
2024/01/17 06:42:41;;;;;;;13.83;8.57;;;;;;;-5.11;100.00;99322.56;5029635;28;20020;-63
2024/01/17 06:45:07;;;;;;;11.57;8.40;;;;;;;-5.11;100.00;99317.50;5026124;28;20022;-62
2024/01/17 06:47:32;;;;;;;11.97;8.20;;;;;;;-5.14;100.00;99316.41;5023633;28;20029;-63
2024/01/17 06:49:57;;;;;;;13.73;7.80;;;;;;;-5.14;100.00;99311.34;5028121;28;20022;-62
2024/01/17 06:52:23;;;;;;;11.63;8.03;;;;;;;-5.16;100.00;99313.78;5022471;28;20157;-63
2024/01/17 06:54:48;;;;;;;13.27;7.97;;;;;;;-5.13;100.00;99315.66;5031068;28;20045;-63
2024/01/17 06:57:13;;;;;;;11.50;8.07;;;;;;;-5.13;100.00;99308.97;5023178;28;20105;-63
2024/01/17 06:59:39;;;;;;;13.47;7.60;;;;;;;-5.08;100.00;99306.75;5037771;28;20026;-62
2024/01/17 07:02:04;;;;;;;9.50;7.47;;;;;;;-5.06;100.00;99302.69;5026659;28;20095;-62
2024/01/17 07:04:29;;;;;;;12.00;7.77;;;;;;;-5.08;100.00;99296.63;5026276;28;20025;-63
2024/01/17 07:06:54;;;;;;;12.03;8.27;;;;;;;-5.12;100.00;99294.66;5029520;28;20030;-63
2024/01/17 07:09:20;;;;;;;11.33;7.63;;;;;;;-5.15;100.00;99281.81;5023720;28;20036;-63
2024/01/17 07:11:45;;;;;;;10.27;7.60;;;;;;;-5.15;100.00;99277.66;5038412;28;20451;-63
2024/01/17 07:14:10;;;;;;;10.47;8.03;;;;;;;-5.21;100.00;99278.09;5035308;28;20184;-63
2024/01/17 07:16:35;;;;;;;13.53;8.13;;;;;;;-5.21;100.00;99273.03;5022278;28;20470;-63
2024/01/17 07:19:01;;;;;;;12.57;8.03;;;;;;;-5.20;100.00;99263.81;5024634;28;20388;-63
2024/01/17 07:21:26;;;;;;;12.40;7.67;;;;;;;-5.25;100.00;99260.97;5025552;28;20061;-63
2024/01/17 07:23:52;;;;;;;13.83;8.33;;;;;;;-5.21;100.00;99260.41;5022515;28;20060;-63
2024/01/17 07:26:17;;;;;;;10.03;8.10;;;;;;;-5.20;100.00;99258.78;5018136;28;20029;-63
2024/01/17 07:28:42;;;;;;;12.90;8.03;;;;;;;-5.18;100.00;99249.66;5029185;28;20500;-62
2024/01/17 07:31:07;;;;;;;12.03;7.60;;;;;;;-5.14;100.00;99238.97;5031473;28;20040;-63
2024/01/17 07:33:33;;;;;;;14.60;7.83;;;;;;;-5.13;100.00;99230.63;5028376;28;20035;-63
2024/01/17 07:35:58;;;;;;;13.20;8.27;;;;;;;-5.11;100.00;99234.13;5025631;28;20056;-63
2024/01/17 07:38:24;;;;;;;11.67;7.93;;;;;;;-5.14;100.00;99226.34;5024015;28;20033;-63
2024/01/17 07:40:49;;;;;;;12.47;8.17;;;;;;;-5.12;100.00;99222.28;5026556;28;20033;-63
2024/01/17 07:43:15;;;;;;;13.30;7.93;;;;;;;-5.10;100.00;99217.31;5020119;28;20053;-63
2024/01/17 07:45:40;;;;;;;12.33;8.40;;;;;;;-5.10;100.00;99215.69;5026533;28;20094;-63
2024/01/17 07:48:05;;;;;;;13.43;8.20;;;;;;;-5.09;100.00;99208.97;5012265;28;20048;-63
2024/01/17 07:50:31;;;;;;;13.00;8.30;;;;;;;-5.08;100.00;99195.56;5021283;28;20029;-63
2024/01/17 07:52:56;;;;;;;13.10;7.63;;;;;;;-5.08;100.00;99201.50;5022875;28;20049;-63
2024/01/17 07:55:21;;;;;;;12.03;8.63;;;;;;;-5.08;100.00;99191.41;5028299;28;20499;-63
2024/01/17 07:57:46;;;;;;;11.53;7.40;;;;;;;-5.08;100.00;99191.41;5021393;28;20072;-63
2024/01/17 08:00:12;;;;;;;11.33;7.50;;;;;;;-5.06;100.00;99184.81;5026051;28;20312;-63
2024/01/17 08:02:39;;;;;;;9.70;7.60;;;;;;;-5.03;100.00;99171.47;5027605;28;20040;-63
2024/01/17 08:05:04;;;;;;;13.63;8.00;;;;;;;-5.02;100.00;99170.72;5025845;28;20033;-63
2024/01/17 08:07:29;;;;;;;11.17;7.93;;;;;;;-4.99;100.00;99167.50;5024011;28;20029;-63
2024/01/17 08:09:55;;;;;;;12.37;9.00;;;;;;;-4.98;100.00;99159.16;5027630;28;20025;-63
2024/01/17 08:12:20;;;;;;;12.50;8.40;;;;;;;-4.95;100.00;99161.91;5026532;28;20025;-63
2024/01/17 08:14:46;;;;;;;12.07;8.90;;;;;;;-4.94;100.00;99163.63;5027130;28;20032;-63
2024/01/17 08:17:11;;;;;;;12.20;8.60;;;;;;;-4.89;100.00;99169.03;5027380;28;20267;-62
2024/01/17 08:19:37;;;;;;;12.33;8.33;;;;;;;-4.87;100.00;99160.75;5027666;28;20485;-62
2024/01/17 08:22:04;;;;;;;12.77;7.90;;;;;;;-4.86;100.00;99160.00;5026209;28;20025;-62
2024/01/17 08:24:29;;;;;;;10.87;8.07;;;;;;;-4.84;100.00;99158.41;5026898;28;20469;-63
2024/01/17 08:26:54;;;;;;;9.93;8.03;;;;;;;-4.81;100.00;99157.75;5026585;28;20032;-63
2024/01/17 08:29:19;;;;;;;12.40;8.50;;;;;;;-4.80;100.00;99146.88;5026718;28;20021;-63
2024/01/17 08:31:45;;;;;;;14.80;8.87;;;;;;;-4.78;100.00;99139.38;5025942;28;20366;-63
2024/01/17 08:34:11;;;;;;;10.33;8.43;;;;;;;-4.76;100.00;99137.84;5027101;28;20025;-63
2024/01/17 08:36:37;;;;;;;13.60;8.97;;;;;;;-4.76;100.00;99131.13;5026440;28;20025;-62
2024/01/17 08:39:05;;;;;;;11.73;8.57;;;;;;;-4.74;100.00;99133.75;5026657;28;20025;-63
2024/01/17 08:41:30;;;;;;;13.23;8.93;;;;;;;-4.73;100.00;99130.47;5026146;28;20033;-63
2024/01/17 08:43:55;;;;;;;10.17;8.37;;;;;;;-4.70;100.00;99121.44;5027270;28;20025;-63
2024/01/17 08:46:21;;;;;;;10.93;9.10;;;;;;;-4.66;100.00;99114.03;5026507;28;20083;-63
2024/01/17 08:48:46;;;;;;;12.63;8.13;;;;;;;-4.65;100.00;99115.78;5026762;28;20305;-63
2024/01/17 08:51:11;;;;;;;13.07;8.73;;;;;;;-4.65;100.00;99114.13;5026626;28;20675;-62
2024/01/17 08:53:37;;;;;;;13.97;9.17;;;;;;;-4.59;100.00;99106.09;5026776;28;20029;-63
2024/01/17 08:56:05;;;;;;;13.67;8.90;;;;;;;-4.59;100.00;99104.41;5026558;28;20025;-63
2024/01/17 08:58:31;;;;;;;12.97;8.70;;;;;;;-4.57;100.00;99094.41;5027259;28;20100;-63
2024/01/17 09:00:56;;;;;;;12.27;8.57;;;;;;;-4.53;100.00;99086.22;5026334;28;20017;-63
2024/01/17 09:03:22;;;;;;;14.87;9.90;;;;;;;-4.51;100.00;99087.22;5025585;28;20092;-63
2024/01/17 09:05:47;;;;;;;14.03;10.27;;;;;;;-4.51;100.00;99076.22;5026832;28;20453;-63
2024/01/17 09:08:13;;;;;;;12.53;9.10;;;;;;;-4.47;100.00;99075.63;5026732;28;20108;-63
2024/01/17 09:10:39;;;;;;;12.70;9.80;;;;;;;-4.54;100.00;99076.91;5026660;28;20034;-63
2024/01/17 09:13:04;;;;;;;14.17;10.77;;;;;;;-4.49;100.00;99077.19;5026642;28;20256;-63
2024/01/17 09:15:29;;;;;;;14.60;10.60;;;;;;;-4.45;100.00;99071.56;5026489;28;20024;-63
2024/01/17 09:17:54;;;;;;;13.90;10.10;;;;;;;-4.42;100.00;99068.34;5027085;28;20040;-63
2024/01/17 09:20:21;;;;;;;14.17;10.87;;;;;;;-4.40;100.00;99061.72;5026098;28;20027;-63
2024/01/17 09:22:46;;;;;;;16.27;12.63;;;;;;;-4.38;100.00;99066.13;5026913;28;20045;-63
2024/01/17 09:25:12;;;;;;;17.87;11.70;;;;;;;-4.38;100.00;99071.19;5026487;28;20108;-63
2024/01/17 09:27:37;;;;;;;19.60;12.27;;;;;;;-4.38;100.00;99066.13;5026878;28;20022;-62
2024/01/17 09:30:02;;;;;;;17.30;12.43;;;;;;;-4.41;100.00;99060.88;5025895;28;20022;-63
2024/01/17 09:32:28;;;;;;;15.43;12.07;;;;;;;-4.39;100.00;99059.28;5025989;28;20028;-63
2024/01/17 09:34:53;;;;;;;16.77;12.30;;;;;;;-4.34;100.00;99052.00;5026399;28;20018;-63
2024/01/17 09:37:19;;;;;;;14.87;11.73;;;;;;;-4.28;100.00;99047.31;5026490;28;20026;-63
2024/01/17 09:39:44;;;;;;;19.53;11.73;;;;;;;-4.25;100.00;99045.00;5026591;28;20108;-63
2024/01/17 09:42:13;;;;;;;18.07;12.63;;;;;;;-4.22;100.00;99055.31;5026649;28;20048;-63
2024/01/17 09:44:38;;;;;;;17.73;11.77;;;;;;;-4.23;100.00;99055.22;5025936;28;20033;-63
2024/01/17 09:47:04;;;;;;;18.40;12.07;;;;;;;-4.19;100.00;99049.53;5026859;28;20021;-63
2024/01/17 09:49:33;;;;;;;16.47;11.87;;;;;;;-4.15;100.00;99043.03;5026028;28;20026;-63
2024/01/17 09:52:04;;;;;;;16.80;12.17;;;;;;;-4.21;100.00;99035.94;5026288;28;20049;-63
2024/01/17 09:54:34;;;;;;;14.77;11.70;;;;;;;-4.14;100.00;99040.59;5025739;28;20028;-63
2024/01/17 09:57:01;;;;;;;18.00;12.83;;;;;;;-4.11;100.00;99040.78;5026530;28;20369;-63
2024/01/17 09:59:30;;;;;;;15.30;12.17;;;;;;;-4.07;100.00;99031.72;5013259;28;20253;-62
2024/01/17 10:01:56;;;;;;;16.20;12.17;;;;;;;-4.02;100.00;99032.00;5028856;28;20025;-63
2024/01/17 10:04:26;;;;;;;16.23;13.13;;;;;;;-4.00;100.00;99028.81;5029658;28;20036;-63
2024/01/17 10:06:52;;;;;;;15.90;11.20;;;;;;;-3.95;100.00;99030.72;5030410;28;20032;-62
2024/01/17 10:09:22;;;;;;;15.23;11.80;;;;;;;-3.93;100.00;99008.91;5030133;28;20021;-63
2024/01/17 10:11:47;;;;;;;16.43;12.77;;;;;;;-3.92;100.00;99013.22;5030114;28;20166;-63
2024/01/17 10:14:13;;;;;;;18.30;11.33;;;;;;;-3.89;100.00;99016.81;5029791;28;20079;-63
2024/01/17 10:16:39;;;;;;;15.77;12.17;;;;;;;-3.87;100.00;99014.38;5029884;28;20037;-63
2024/01/17 10:19:05;;;;;;;18.10;12.73;;;;;;;-3.81;100.00;99021.47;5030025;28;20018;-63
2024/01/17 10:21:33;;;;;;;17.93;13.63;;;;;;;-3.82;100.00;99018.03;5029980;28;20025;-63
2024/01/17 10:23:59;;;;;;;15.17;12.13;;;;;;;-3.89;100.00;99015.91;5029700;28;20033;-63
2024/01/17 10:26:24;;;;;;;17.73;13.03;;;;;;;-3.93;100.00;99017.38;5029640;28;20078;-63
2024/01/17 10:28:49;;;;;;;17.07;12.93;;;;;;;-3.89;100.00;99013.38;5029490;28;20022;-63
2024/01/17 10:31:14;;;;;;;17.27;12.80;;;;;;;-3.90;100.00;99002.38;5028912;28;20705;-63
2024/01/17 10:33:40;;;;;;;19.13;12.93;;;;;;;-3.89;100.00;98994.03;5029234;28;20071;-63
2024/01/17 10:36:07;;;;;;;16.20;12.57;;;;;;;-3.81;100.00;99003.72;5029683;28;20032;-63
2024/01/17 10:38:32;;;;;;;18.00;11.37;;;;;;;-3.76;100.00;99000.66;5029337;28;20374;-63
2024/01/17 10:41:08;;;;;;;20.63;11.07;;;;;;;-3.71;100.00;98990.84;5029250;28;20025;-63
2024/01/17 10:43:51;;;;;;;18.60;11.83;;;;;;;-3.69;100.00;98988.38;5028632;28;20017;-63
2024/01/17 10:46:16;;;;;;;15.60;12.17;;;;;;;-3.63;100.00;98984.56;5029049;28;20025;-63
2024/01/17 10:48:42;;;;;;;15.37;10.83;;;;;;;-3.59;100.00;98980.53;5028714;28;20068;-63
2024/01/17 10:51:09;;;;;;;15.87;11.53;;;;;;;-3.55;100.00;98981.59;5028792;28;20049;-63
2024/01/17 10:53:36;;;;;;;18.37;11.67;;;;;;;-3.53;100.00;98969.91;5028852;28;20113;-63
2024/01/17 10:56:04;;;;;;;15.37;11.03;;;;;;;-3.56;100.00;98969.72;5029017;28;20207;-63
2024/01/17 10:58:33;;;;;;;14.40;9.90;;;;;;;-3.62;100.00;98955.91;5029329;28;20521;-63
2024/01/17 11:01:05;;;;;;;16.83;9.63;;;;;;;-3.63;100.00;98958.34;5029028;28;20430;-63
2024/01/17 11:03:33;;;;;;;16.07;9.13;;;;;;;-3.65;100.00;98950.66;5029094;28;20099;-63
2024/01/17 11:05:59;;;;;;;16.30;9.37;;;;;;;-3.61;100.00;98946.66;5016337;28;20402;-63
2024/01/17 11:08:25;;;;;;;13.97;9.43;;;;;;;-3.62;100.00;98945.78;5028415;28;20120;-63
2024/01/17 11:10:52;;;;;;;16.27;9.70;;;;;;;-3.55;100.00;98938.53;5028868;28;20079;-63